createdAt,value
2022-08-19T00:02:50.183Z,13.77
2022-08-19T00:07:52.810Z,11.00
2022-08-19T00:12:54.875Z,13.05
2022-08-19T00:17:56.973Z,14.02
2022-08-19T00:22:59.120Z,16.85
2022-08-19T00:28:01.223Z,12.70
2022-08-19T00:33:03.761Z,19.70
2022-08-19T00:38:07.429Z,15.85
2022-08-19T00:43:14.491Z,15.65
2022-08-19T00:48:17.955Z,12.95
2022-08-19T00:53:24.679Z,13.05
2022-08-19T00:58:31.219Z,13.38
2022-08-19T01:03:56.893Z,15.68
2022-08-19T01:08:56.337Z,18.13
2022-08-19T01:13:59.231Z,12.90
2022-08-19T01:19:02.672Z,12.38
2022-08-19T01:24:05.674Z,15.63
2022-08-19T01:29:09.025Z,15.10
2022-08-19T01:34:12.120Z,16.77
2022-08-19T01:39:18.566Z,17.13
2022-08-19T01:44:24.589Z,13.85
2022-08-19T01:49:27.698Z,11.50
2022-08-19T01:54:29.931Z,12.88
2022-08-19T01:59:33.662Z,14.05
2022-08-19T02:04:36.380Z,14.13
2022-08-19T02:09:39.354Z,16.02
2022-08-19T02:14:41.668Z,11.88
2022-08-19T02:19:43.831Z,11.93
2022-08-19T02:24:45.963Z,12.85
2022-08-19T02:29:50.231Z,13.50
2022-08-19T02:34:52.370Z,10.30
2022-08-19T02:39:54.749Z,9.88
2022-08-19T02:44:57.277Z,13.05
2022-08-19T02:49:59.502Z,14.20
2022-08-19T02:55:02.210Z,11.95
2022-08-19T03:00:08.135Z,11.10
2022-08-19T03:05:11.018Z,10.60
2022-08-19T03:10:13.974Z,11.70
2022-08-19T03:15:16.549Z,10.43
2022-08-19T03:20:18.620Z,14.05
2022-08-19T03:25:20.789Z,12.52
2022-08-19T03:30:23.309Z,13.02
2022-08-19T03:35:26.077Z,11.15
2022-08-19T03:40:28.241Z,11.60
2022-08-19T03:45:30.795Z,9.27
2022-08-19T03:50:32.943Z,9.23
2022-08-19T03:55:35.056Z,9.77
2022-08-19T04:00:37.585Z,9.95
2022-08-19T04:05:39.749Z,13.00
2022-08-19T04:10:42.988Z,10.38
2022-08-19T04:15:47.353Z,10.82
2022-08-19T04:20:49.898Z,9.30
2022-08-19T04:25:52.146Z,9.10
2022-08-19T04:30:55.630Z,4.88
2022-08-19T04:35:59.361Z,8.45
2022-08-19T04:41:24.670Z,10.43
2022-08-19T04:46:39.574Z,9.75
2022-08-19T04:51:44.908Z,7.40
2022-08-19T04:56:47.111Z,6.07
2022-08-19T05:01:50.773Z,10.18
2022-08-19T05:06:54.371Z,8.00
2022-08-19T05:12:02.719Z,5.57
2022-08-19T05:17:25.971Z,4.97
2022-08-19T05:22:36.595Z,9.05
2022-08-19T05:27:39.458Z,7.85
2022-08-19T05:32:43.265Z,7.43
2022-08-19T05:37:45.367Z,8.05
2022-08-19T05:42:54.880Z,4.32
2022-08-19T05:47:57.875Z,6.53
2022-08-19T05:53:00.069Z,6.90
2022-08-19T05:58:02.891Z,9.60
2022-08-19T06:03:12.687Z,5.22
2022-08-19T06:08:15.419Z,7.03
2022-08-19T06:13:19.489Z,8.75
2022-08-19T06:18:21.614Z,4.63
2022-08-19T06:23:24.237Z,7.45
2022-08-19T06:28:26.620Z,6.03
2022-08-19T06:33:28.743Z,7.43
2022-08-19T06:38:34.494Z,8.35
2022-08-19T06:43:38.148Z,4.53
2022-08-19T06:48:45.347Z,9.25
2022-08-19T06:58:57.062Z,8.43
2022-08-19T07:03:59.211Z,7.00
2022-08-19T07:09:01.396Z,8.23
2022-08-19T07:14:04.214Z,8.38
2022-08-19T07:19:11.625Z,8.45
2022-08-19T07:24:18.655Z,18.13
2022-08-19T07:29:25.661Z,6.75
2022-08-19T07:34:34.312Z,8.35
2022-08-19T07:39:37.906Z,6.57
2022-08-19T07:49:43.310Z,18.90
2022-08-19T07:54:45.447Z,15.18
2022-08-19T07:59:47.559Z,7.28
2022-08-19T08:05:08.282Z,8.98
2022-08-19T08:15:25.108Z,6.97
2022-08-19T08:20:27.308Z,3.67
2022-08-19T08:25:32.464Z,5.38
2022-08-19T08:30:37.968Z,5.22
2022-08-19T08:35:42.906Z,8.30
2022-08-19T08:40:54.286Z,6.47
2022-08-19T08:46:02.935Z,5.80
2022-08-19T08:51:13.534Z,11.10
2022-08-19T08:56:18.798Z,5.50
2022-08-19T09:01:21.635Z,5.35
2022-08-19T09:06:38.313Z,8.73
2022-08-19T09:11:57.669Z,8.00
2022-08-19T09:17:01.677Z,6.72
2022-08-19T09:22:03.935Z,6.72
2022-08-19T09:27:08.389Z,10.80
2022-08-19T09:32:26.240Z,4.85
2022-08-19T09:37:29.105Z,7.63
2022-08-19T09:42:35.447Z,13.40
2022-08-19T09:47:40.854Z,5.47
2022-08-19T09:52:55.507Z,6.97
2022-08-19T09:58:03.586Z,5.47
2022-08-19T10:03:05.698Z,10.20
2022-08-19T10:08:13.741Z,12.77
2022-08-19T10:13:18.703Z,7.43
2022-08-19T10:18:22.960Z,7.25
2022-08-19T10:23:25.060Z,6.55
2022-08-19T10:28:27.197Z,7.70
2022-08-19T10:33:53.235Z,6.00
2022-08-19T10:38:59.622Z,7.85
2022-08-19T10:44:06.697Z,5.72
2022-08-19T10:49:12.066Z,4.28
2022-08-19T10:54:14.458Z,3.00
2022-08-19T10:59:17.535Z,11.05
2022-08-19T11:04:20.907Z,5.50
2022-08-19T11:09:34.370Z,5.10
2022-08-19T11:14:37.508Z,6.05
2022-08-19T11:19:39.849Z,8.05
2022-08-19T11:24:42.415Z,5.80
2022-08-19T11:29:45.259Z,7.05
2022-08-19T11:34:47.426Z,4.30
2022-08-19T11:39:53.627Z,7.35
2022-08-19T11:44:56.315Z,5.32
2022-08-19T11:49:58.498Z,6.63
2022-08-19T11:55:00.624Z,13.52
2022-08-19T12:00:04.963Z,3.08
2022-08-19T12:05:12.016Z,4.35
2022-08-19T12:10:15.449Z,5.40
2022-08-19T12:15:21.349Z,7.78
2022-08-19T12:20:25.011Z,3.22
2022-08-19T12:25:27.115Z,5.93
2022-08-19T12:30:29.293Z,4.85
2022-08-19T12:35:31.912Z,6.25
2022-08-19T12:40:34.035Z,5.97
2022-08-19T12:45:36.201Z,4.65
2022-08-19T12:50:44.487Z,2.70
2022-08-19T12:55:46.881Z,3.55
2022-08-19T13:00:50.034Z,6.78
2022-08-19T13:05:52.249Z,6.60
2022-08-19T13:10:55.872Z,3.88
2022-08-19T13:16:05.792Z,5.55
2022-08-19T13:21:11.013Z,3.58
2022-08-19T13:26:14.113Z,4.60
2022-08-19T13:31:37.196Z,5.95
2022-08-19T13:36:40.207Z,6.50
2022-08-19T13:41:49.066Z,6.03
2022-08-19T13:46:54.227Z,6.25
2022-08-19T13:51:56.488Z,6.60
2022-08-19T13:56:58.653Z,6.80
2022-08-19T14:02:01.570Z,8.13
2022-08-19T14:07:04.436Z,5.70
2022-08-19T14:12:06.856Z,5.30
2022-08-19T14:17:10.329Z,8.93
2022-08-19T14:22:15.166Z,6.38
2022-08-19T14:27:26.215Z,9.63
2022-08-19T14:32:28.503Z,6.72
2022-08-19T14:37:31.724Z,5.18
2022-08-19T14:42:39.632Z,8.07
2022-08-19T14:47:41.729Z,6.85
2022-08-19T14:52:44.348Z,7.45
2022-08-19T14:57:46.615Z,4.88
2022-08-19T15:02:48.960Z,7.65
2022-08-19T15:07:51.111Z,8.38
2022-08-19T15:12:54.343Z,4.10
2022-08-19T15:18:03.097Z,5.20
2022-08-19T15:23:05.238Z,7.50
2022-08-19T15:28:07.374Z,7.63
2022-08-19T15:33:11.084Z,8.80
2022-08-19T15:38:16.938Z,4.95
2022-08-19T15:43:22.245Z,7.10
2022-08-19T15:48:24.356Z,7.20
2022-08-19T15:53:26.903Z,11.32
2022-08-19T15:58:47.621Z,5.45
2022-08-19T16:04:11.084Z,4.90
2022-08-19T16:09:22.106Z,9.82
2022-08-19T16:14:28.172Z,9.32
2022-08-19T16:19:31.105Z,6.57
2022-08-19T16:24:36.205Z,7.68
2022-08-19T16:29:39.432Z,11.65
2022-08-19T16:34:42.907Z,9.82
2022-08-19T16:39:45.283Z,4.70
2022-08-19T16:44:47.492Z,7.07
2022-08-19T16:49:52.204Z,9.07
2022-08-19T16:54:56.946Z,10.27
2022-08-19T16:59:59.703Z,8.27
2022-08-19T17:05:02.140Z,10.55
2022-08-19T17:10:05.793Z,6.68
2022-08-19T17:15:11.412Z,6.03
2022-08-19T17:20:14.085Z,9.70
2022-08-19T17:25:16.510Z,9.95
2022-08-19T17:30:19.167Z,5.13
2022-08-19T17:35:24.204Z,7.53
2022-08-19T17:40:29.176Z,7.07
2022-08-19T17:45:32.470Z,9.32
2022-08-19T17:50:35.344Z,7.22
2022-08-19T17:55:37.571Z,5.43
2022-08-19T18:00:39.918Z,12.05
2022-08-19T18:05:57.087Z,9.80
2022-08-19T18:11:00.770Z,9.85
2022-08-19T18:16:05.565Z,7.03
2022-08-19T18:21:08.841Z,7.18
2022-08-19T18:26:11.048Z,11.93
2022-08-19T18:31:13.266Z,10.35
2022-08-19T18:36:15.570Z,8.95
2022-08-19T18:41:36.266Z,7.47
2022-08-19T18:46:57.495Z,12.35
2022-08-19T18:52:00.339Z,7.47
2022-08-19T18:57:05.718Z,7.88
2022-08-19T19:02:08.725Z,7.97
2022-08-19T19:07:11.635Z,8.25
2022-08-19T19:12:14.734Z,9.35
2022-08-19T19:17:17.585Z,11.23
2022-08-19T19:22:23.132Z,11.93
2022-08-19T19:27:25.964Z,8.35
2022-08-19T19:32:35.810Z,6.80
2022-08-19T19:37:40.906Z,4.32
2022-08-19T19:42:43.107Z,9.80
2022-08-19T19:47:47.844Z,6.25
2022-08-19T19:52:49.995Z,11.77
2022-08-19T19:57:54.018Z,9.30
2022-08-19T20:02:56.509Z,8.98
2022-08-19T20:08:17.363Z,10.73
2022-08-19T20:13:21.809Z,11.73
2022-08-19T20:18:24.657Z,9.43
2022-08-19T20:23:26.940Z,8.77
2022-08-19T20:28:30.113Z,11.73
2022-08-19T20:33:32.355Z,11.32
2022-08-19T20:38:35.129Z,7.88
2022-08-19T20:43:38.371Z,8.48
2022-08-19T20:48:42.512Z,9.48
2022-08-19T20:53:45.173Z,10.65
2022-08-19T20:58:51.835Z,7.18
2022-08-19T21:03:56.672Z,8.93
2022-08-19T21:08:58.831Z,8.93
2022-08-19T21:14:01.015Z,12.25
2022-08-19T21:19:04.611Z,9.90
2022-08-19T21:24:07.023Z,10.75
2022-08-19T21:29:09.781Z,11.98
2022-08-19T21:34:12.639Z,11.30
2022-08-19T21:39:14.780Z,14.48
2022-08-19T21:44:16.928Z,9.27
2022-08-19T21:49:19.675Z,9.82
2022-08-19T21:54:21.758Z,13.57
2022-08-19T21:59:23.963Z,11.48
2022-08-19T22:04:26.482Z,15.63
2022-08-19T22:09:28.759Z,9.73
2022-08-19T22:14:31.143Z,15.60
2022-08-19T22:19:33.333Z,13.00
2022-08-19T22:24:35.608Z,12.32
2022-08-19T22:29:37.773Z,13.68
2022-08-19T22:34:41.347Z,15.43
2022-08-19T22:39:43.490Z,16.75
2022-08-19T22:44:46.132Z,12.38
2022-08-19T22:49:48.221Z,10.60
2022-08-19T22:54:53.666Z,12.50
2022-08-19T23:00:00.936Z,14.98
2022-08-19T23:05:10.573Z,14.57
2022-08-19T23:10:13.327Z,11.55
2022-08-19T23:15:31.932Z,17.05
2022-08-19T23:20:36.546Z,14.10
2022-08-19T23:25:39.908Z,12.02
2022-08-19T23:30:45.590Z,14.05
2022-08-19T23:35:48.340Z,18.85
2022-08-19T23:40:52.062Z,16.95
2022-08-19T23:45:57.437Z,15.90
2022-08-19T23:51:05.636Z,24.75
2022-08-19T23:56:09.472Z,22.35
